sensor_id;sensor_type;location;lat;lon;timestamp;temperature;humidity
20728;DHT22;10525;50.154;8.198;2022-12-20T00:01:19;5.10;99.90
20728;DHT22;10525;50.154;8.198;2022-12-20T00:03:48;5.00;99.90
20728;DHT22;10525;50.154;8.198;2022-12-20T00:06:17;4.90;99.90
20728;DHT22;10525;50.154;8.198;2022-12-20T00:08:45;4.90;99.90
20728;DHT22;10525;50.154;8.198;2022-12-20T00:11:12;4.90;99.90
20728;DHT22;10525;50.154;8.198;2022-12-20T00:13:39;4.80;99.90
20728;DHT22;10525;50.154;8.198;2022-12-20T00:16:07;4.80;99.90
20728;DHT22;10525;50.154;8.198;2022-12-20T00:18:34;4.80;99.90
20728;DHT22;10525;50.154;8.198;2022-12-20T00:21:03;4.90;99.90
20728;DHT22;10525;50.154;8.198;2022-12-20T00:23:31;4.90;99.90
20728;DHT22;10525;50.154;8.198;2022-12-20T00:26:02;4.80;99.90
20728;DHT22;10525;50.154;8.198;2022-12-20T00:28:30;4.80;99.90
20728;DHT22;10525;50.154;8.198;2022-12-20T00:30:57;5.00;99.90
20728;DHT22;10525;50.154;8.198;2022-12-20T00:33:24;4.90;99.90
20728;DHT22;10525;50.154;8.198;2022-12-20T00:35:50;5.10;99.90
20728;DHT22;10525;50.154;8.198;2022-12-20T00:38:17;5.00;99.90
20728;DHT22;10525;50.154;8.198;2022-12-20T00:40:45;5.10;99.90
20728;DHT22;10525;50.154;8.198;2022-12-20T00:43:12;5.10;99.90
20728;DHT22;10525;50.154;8.198;2022-12-20T00:45:39;5.20;99.90
20728;DHT22;10525;50.154;8.198;2022-12-20T00:48:05;5.30;99.90
20728;DHT22;10525;50.154;8.198;2022-12-20T00:50:32;5.30;99.90
20728;DHT22;10525;50.154;8.198;2022-12-20T00:52:59;5.30;99.90
20728;DHT22;10525;50.154;8.198;2022-12-20T00:55:25;5.30;99.90
20728;DHT22;10525;50.154;8.198;2022-12-20T00:57:53;5.30;99.90
20728;DHT22;10525;50.154;8.198;2022-12-20T01:00:20;5.40;99.90
20728;DHT22;10525;50.154;8.198;2022-12-20T01:02:47;5.50;99.90
20728;DHT22;10525;50.154;8.198;2022-12-20T01:05:14;5.40;99.90
20728;DHT22;10525;50.154;8.198;2022-12-20T01:07:40;5.40;99.90
20728;DHT22;10525;50.154;8.198;2022-12-20T01:10:08;5.50;99.90
20728;DHT22;10525;50.154;8.198;2022-12-20T01:12:35;5.40;99.90
20728;DHT22;10525;50.154;8.198;2022-12-20T01:15:04;5.30;99.90
20728;DHT22;10525;50.154;8.198;2022-12-20T01:17:31;5.30;99.90
20728;DHT22;10525;50.154;8.198;2022-12-20T01:19:58;5.20;99.90
20728;DHT22;10525;50.154;8.198;2022-12-20T01:22:25;5.20;99.90
20728;DHT22;10525;50.154;8.198;2022-12-20T01:24:51;5.20;99.90
20728;DHT22;10525;50.154;8.198;2022-12-20T01:27:18;5.20;99.90
20728;DHT22;10525;50.154;8.198;2022-12-20T01:29:45;5.10;99.90
20728;DHT22;10525;50.154;8.198;2022-12-20T01:32:13;5.00;99.90
20728;DHT22;10525;50.154;8.198;2022-12-20T01:34:40;4.90;99.90
20728;DHT22;10525;50.154;8.198;2022-12-20T01:37:06;4.90;99.90
20728;DHT22;10525;50.154;8.198;2022-12-20T01:39:33;4.80;99.90
20728;DHT22;10525;50.154;8.198;2022-12-20T01:42:00;4.60;99.90
20728;DHT22;10525;50.154;8.198;2022-12-20T01:44:50;4.60;99.90
20728;DHT22;10525;50.154;8.198;2022-12-20T01:47:19;4.50;99.90
20728;DHT22;10525;50.154;8.198;2022-12-20T01:49:48;4.30;99.90
20728;DHT22;10525;50.154;8.198;2022-12-20T01:52:19;4.20;99.90
20728;DHT22;10525;50.154;8.198;2022-12-20T01:54:50;4.10;99.90
20728;DHT22;10525;50.154;8.198;2022-12-20T01:57:21;4.10;99.90
20728;DHT22;10525;50.154;8.198;2022-12-20T01:59:52;4.00;99.90
20728;DHT22;10525;50.154;8.198;2022-12-20T02:02:20;3.80;99.90
20728;DHT22;10525;50.154;8.198;2022-12-20T02:04:47;3.70;99.90
20728;DHT22;10525;50.154;8.198;2022-12-20T02:07:16;3.70;99.90
20728;DHT22;10525;50.154;8.198;2022-12-20T02:09:44;3.70;99.90
20728;DHT22;10525;50.154;8.198;2022-12-20T02:12:14;3.60;99.90
20728;DHT22;10525;50.154;8.198;2022-12-20T02:14:49;3.60;99.90
20728;DHT22;10525;50.154;8.198;2022-12-20T02:17:33;3.60;99.90
20728;DHT22;10525;50.154;8.198;2022-12-20T02:26:16;3.70;99.90
20728;DHT22;10525;50.154;8.198;2022-12-20T02:29:00;3.70;99.90
20728;DHT22;10525;50.154;8.198;2022-12-20T02:31:36;3.80;99.90
20728;DHT22;10525;50.154;8.198;2022-12-20T02:34:06;3.90;99.90
20728;DHT22;10525;50.154;8.198;2022-12-20T02:36:34;3.90;99.90
20728;DHT22;10525;50.154;8.198;2022-12-20T02:39:01;3.90;99.90
20728;DHT22;10525;50.154;8.198;2022-12-20T02:41:32;3.90;99.90
20728;DHT22;10525;50.154;8.198;2022-12-20T02:44:03;3.90;99.90
20728;DHT22;10525;50.154;8.198;2022-12-20T02:46:50;3.90;99.90
20728;DHT22;10525;50.154;8.198;2022-12-20T02:49:19;3.80;99.90
20728;DHT22;10525;50.154;8.198;2022-12-20T02:51:51;3.80;99.90
20728;DHT22;10525;50.154;8.198;2022-12-20T02:54:18;3.70;99.90
20728;DHT22;10525;50.154;8.198;2022-12-20T02:56:50;3.70;99.90
20728;DHT22;10525;50.154;8.198;2022-12-20T02:59:20;3.70;99.90
20728;DHT22;10525;50.154;8.198;2022-12-20T03:01:51;3.60;99.90
20728;DHT22;10525;50.154;8.198;2022-12-20T03:04:21;3.60;99.90
20728;DHT22;10525;50.154;8.198;2022-12-20T03:06:59;3.50;99.90
20728;DHT22;10525;50.154;8.198;2022-12-20T03:09:26;3.40;99.90
20728;DHT22;10525;50.154;8.198;2022-12-20T03:11:53;3.30;99.90
20728;DHT22;10525;50.154;8.198;2022-12-20T03:14:20;3.30;99.90
20728;DHT22;10525;50.154;8.198;2022-12-20T03:16:47;3.40;99.90
20728;DHT22;10525;50.154;8.198;2022-12-20T03:19:15;3.40;99.90
20728;DHT22;10525;50.154;8.198;2022-12-20T03:21:42;3.30;99.90
20728;DHT22;10525;50.154;8.198;2022-12-20T03:24:09;3.30;99.90
20728;DHT22;10525;50.154;8.198;2022-12-20T03:26:38;3.30;99.90
20728;DHT22;10525;50.154;8.198;2022-12-20T03:29:05;3.30;99.90
20728;DHT22;10525;50.154;8.198;2022-12-20T03:31:32;3.30;99.90
20728;DHT22;10525;50.154;8.198;2022-12-20T03:33:58;3.30;99.90
20728;DHT22;10525;50.154;8.198;2022-12-20T03:36:26;3.30;99.90
20728;DHT22;10525;50.154;8.198;2022-12-20T03:38:53;3.30;99.90
20728;DHT22;10525;50.154;8.198;2022-12-20T03:41:21;3.30;99.90
20728;DHT22;10525;50.154;8.198;2022-12-20T03:43:48;3.30;99.90
20728;DHT22;10525;50.154;8.198;2022-12-20T03:46:15;3.30;99.90
20728;DHT22;10525;50.154;8.198;2022-12-20T03:48:42;3.40;99.90
20728;DHT22;10525;50.154;8.198;2022-12-20T03:51:09;3.40;99.90
20728;DHT22;10525;50.154;8.198;2022-12-20T03:53:37;3.40;99.90
20728;DHT22;10525;50.154;8.198;2022-12-20T03:56:05;3.50;99.90
20728;DHT22;10525;50.154;8.198;2022-12-20T03:58:31;3.40;99.90
20728;DHT22;10525;50.154;8.198;2022-12-20T04:00:58;3.50;99.90
20728;DHT22;10525;50.154;8.198;2022-12-20T04:03:25;3.50;99.90
20728;DHT22;10525;50.154;8.198;2022-12-20T04:05:51;3.50;99.90
20728;DHT22;10525;50.154;8.198;2022-12-20T04:08:18;3.50;99.90
20728;DHT22;10525;50.154;8.198;2022-12-20T04:10:46;3.60;99.90
20728;DHT22;10525;50.154;8.198;2022-12-20T04:13:30;3.50;99.90
20728;DHT22;10525;50.154;8.198;2022-12-20T04:15:57;3.60;99.90
20728;DHT22;10525;50.154;8.198;2022-12-20T04:18:23;3.60;99.90
20728;DHT22;10525;50.154;8.198;2022-12-20T04:20:52;3.60;99.90
20728;DHT22;10525;50.154;8.198;2022-12-20T04:23:19;3.60;99.90
20728;DHT22;10525;50.154;8.198;2022-12-20T04:25:47;3.60;99.90
20728;DHT22;10525;50.154;8.198;2022-12-20T04:28:13;3.70;99.90
20728;DHT22;10525;50.154;8.198;2022-12-20T04:30:40;3.70;99.90
20728;DHT22;10525;50.154;8.198;2022-12-20T04:33:07;3.70;99.90
20728;DHT22;10525;50.154;8.198;2022-12-20T04:35:34;3.80;99.90
20728;DHT22;10525;50.154;8.198;2022-12-20T04:38:01;3.70;99.90
20728;DHT22;10525;50.154;8.198;2022-12-20T04:40:28;3.70;99.90
20728;DHT22;10525;50.154;8.198;2022-12-20T04:42:56;3.70;99.90
20728;DHT22;10525;50.154;8.198;2022-12-20T04:45:22;3.70;99.90
20728;DHT22;10525;50.154;8.198;2022-12-20T04:47:49;3.70;99.90
20728;DHT22;10525;50.154;8.198;2022-12-20T04:50:16;3.70;99.90
20728;DHT22;10525;50.154;8.198;2022-12-20T04:52:43;3.70;99.90
20728;DHT22;10525;50.154;8.198;2022-12-20T04:55:27;3.70;99.90
20728;DHT22;10525;50.154;8.198;2022-12-20T04:57:55;3.80;99.90
20728;DHT22;10525;50.154;8.198;2022-12-20T05:00:22;3.80;99.90
20728;DHT22;10525;50.154;8.198;2022-12-20T05:02:48;3.80;99.90
20728;DHT22;10525;50.154;8.198;2022-12-20T05:05:15;3.80;99.90
20728;DHT22;10525;50.154;8.198;2022-12-20T05:07:42;3.90;99.90
20728;DHT22;10525;50.154;8.198;2022-12-20T05:10:09;3.90;99.90
20728;DHT22;10525;50.154;8.198;2022-12-20T05:12:36;4.00;99.90
20728;DHT22;10525;50.154;8.198;2022-12-20T05:15:05;3.90;99.90
20728;DHT22;10525;50.154;8.198;2022-12-20T05:17:32;3.80;99.90
20728;DHT22;10525;50.154;8.198;2022-12-20T05:19:58;3.90;99.90
20728;DHT22;10525;50.154;8.198;2022-12-20T05:22:25;3.80;99.90
20728;DHT22;10525;50.154;8.198;2022-12-20T05:25:10;3.80;99.90
20728;DHT22;10525;50.154;8.198;2022-12-20T05:27:54;3.80;99.90
20728;DHT22;10525;50.154;8.198;2022-12-20T05:30:22;3.80;99.90
20728;DHT22;10525;50.154;8.198;2022-12-20T05:32:49;3.90;99.90
20728;DHT22;10525;50.154;8.198;2022-12-20T05:35:16;3.80;99.90
20728;DHT22;10525;50.154;8.198;2022-12-20T05:37:43;3.80;99.90
20728;DHT22;10525;50.154;8.198;2022-12-20T05:40:10;3.80;99.90
20728;DHT22;10525;50.154;8.198;2022-12-20T05:42:37;3.90;99.90
20728;DHT22;10525;50.154;8.198;2022-12-20T05:45:05;3.90;99.90
20728;DHT22;10525;50.154;8.198;2022-12-20T05:47:33;3.90;99.90
20728;DHT22;10525;50.154;8.198;2022-12-20T05:50:00;3.90;99.90
20728;DHT22;10525;50.154;8.198;2022-12-20T05:52:27;4.00;99.90
20728;DHT22;10525;50.154;8.198;2022-12-20T05:54:53;4.00;99.90
20728;DHT22;10525;50.154;8.198;2022-12-20T05:57:20;3.90;99.90
20728;DHT22;10525;50.154;8.198;2022-12-20T05:59:47;4.00;99.90
20728;DHT22;10525;50.154;8.198;2022-12-20T06:02:14;4.00;99.90
20728;DHT22;10525;50.154;8.198;2022-12-20T06:04:42;4.00;99.90
20728;DHT22;10525;50.154;8.198;2022-12-20T06:07:09;4.00;99.90
20728;DHT22;10525;50.154;8.198;2022-12-20T06:09:36;4.10;99.90
20728;DHT22;10525;50.154;8.198;2022-12-20T06:12:03;4.20;99.90
20728;DHT22;10525;50.154;8.198;2022-12-20T06:14:29;4.10;99.90
20728;DHT22;10525;50.154;8.198;2022-12-20T06:16:56;4.10;99.90
20728;DHT22;10525;50.154;8.198;2022-12-20T06:19:23;4.00;99.90
20728;DHT22;10525;50.154;8.198;2022-12-20T06:21:51;4.10;99.90
20728;DHT22;10525;50.154;8.198;2022-12-20T06:24:17;4.00;99.90
20728;DHT22;10525;50.154;8.198;2022-12-20T06:26:45;4.00;99.90
20728;DHT22;10525;50.154;8.198;2022-12-20T06:29:12;4.00;99.90
20728;DHT22;10525;50.154;8.198;2022-12-20T06:31:41;4.10;99.90
20728;DHT22;10525;50.154;8.198;2022-12-20T06:34:08;4.20;99.90
20728;DHT22;10525;50.154;8.198;2022-12-20T06:36:35;4.20;99.90
20728;DHT22;10525;50.154;8.198;2022-12-20T06:39:03;4.20;99.90
20728;DHT22;10525;50.154;8.198;2022-12-20T06:41:29;4.20;99.90
20728;DHT22;10525;50.154;8.198;2022-12-20T06:43:56;4.30;99.90
20728;DHT22;10525;50.154;8.198;2022-12-20T06:46:23;4.30;99.90
20728;DHT22;10525;50.154;8.198;2022-12-20T06:48:50;4.20;99.90
20728;DHT22;10525;50.154;8.198;2022-12-20T06:51:16;4.10;99.90
20728;DHT22;10525;50.154;8.198;2022-12-20T06:53:43;4.10;99.90
20728;DHT22;10525;50.154;8.198;2022-12-20T06:56:11;4.10;99.90
20728;DHT22;10525;50.154;8.198;2022-12-20T06:58:38;4.10;99.90
20728;DHT22;10525;50.154;8.198;2022-12-20T07:01:04;4.10;99.90
20728;DHT22;10525;50.154;8.198;2022-12-20T07:03:31;4.00;99.90
20728;DHT22;10525;50.154;8.198;2022-12-20T07:05:58;4.00;99.90
20728;DHT22;10525;50.154;8.198;2022-12-20T07:08:25;4.00;99.90
20728;DHT22;10525;50.154;8.198;2022-12-20T07:10:51;4.10;99.90
20728;DHT22;10525;50.154;8.198;2022-12-20T07:13:20;4.20;99.90
20728;DHT22;10525;50.154;8.198;2022-12-20T07:15:47;4.30;99.90
20728;DHT22;10525;50.154;8.198;2022-12-20T07:18:14;4.30;99.90
20728;DHT22;10525;50.154;8.198;2022-12-20T07:20:40;4.30;99.90
20728;DHT22;10525;50.154;8.198;2022-12-20T07:23:07;4.30;99.90
20728;DHT22;10525;50.154;8.198;2022-12-20T07:25:34;4.40;99.90
20728;DHT22;10525;50.154;8.198;2022-12-20T07:28:01;4.40;99.90
20728;DHT22;10525;50.154;8.198;2022-12-20T07:30:29;4.40;99.90
20728;DHT22;10525;50.154;8.198;2022-12-20T07:32:56;4.50;99.90
20728;DHT22;10525;50.154;8.198;2022-12-20T07:35:23;4.60;99.90
20728;DHT22;10525;50.154;8.198;2022-12-20T07:37:51;4.60;99.90
20728;DHT22;10525;50.154;8.198;2022-12-20T07:40:17;4.60;99.90
20728;DHT22;10525;50.154;8.198;2022-12-20T07:42:44;4.70;99.90
20728;DHT22;10525;50.154;8.198;2022-12-20T07:45:11;4.70;99.90
20728;DHT22;10525;50.154;8.198;2022-12-20T07:47:39;4.70;99.90
20728;DHT22;10525;50.154;8.198;2022-12-20T07:50:07;4.80;99.90
20728;DHT22;10525;50.154;8.198;2022-12-20T07:52:34;4.70;99.90
20728;DHT22;10525;50.154;8.198;2022-12-20T07:55:03;4.70;99.90
20728;DHT22;10525;50.154;8.198;2022-12-20T07:57:34;4.80;99.90
20728;DHT22;10525;50.154;8.198;2022-12-20T08:00:04;4.90;99.90
20728;DHT22;10525;50.154;8.198;2022-12-20T08:02:34;4.90;99.90
20728;DHT22;10525;50.154;8.198;2022-12-20T08:05:05;4.90;99.90
20728;DHT22;10525;50.154;8.198;2022-12-20T08:07:33;4.80;99.90
20728;DHT22;10525;50.154;8.198;2022-12-20T08:10:02;4.80;99.90
20728;DHT22;10525;50.154;8.198;2022-12-20T08:12:30;4.90;99.90
20728;DHT22;10525;50.154;8.198;2022-12-20T08:14:57;5.00;99.90
20728;DHT22;10525;50.154;8.198;2022-12-20T08:17:24;5.00;99.90
20728;DHT22;10525;50.154;8.198;2022-12-20T08:19:50;5.10;99.90
20728;DHT22;10525;50.154;8.198;2022-12-20T08:22:19;5.20;99.90
20728;DHT22;10525;50.154;8.198;2022-12-20T08:24:47;5.20;99.90
20728;DHT22;10525;50.154;8.198;2022-12-20T08:27:14;5.20;99.90
20728;DHT22;10525;50.154;8.198;2022-12-20T08:29:40;5.20;99.90
20728;DHT22;10525;50.154;8.198;2022-12-20T08:32:07;5.10;99.90
20728;DHT22;10525;50.154;8.198;2022-12-20T08:34:34;5.20;99.90
20728;DHT22;10525;50.154;8.198;2022-12-20T08:37:01;5.20;99.90
20728;DHT22;10525;50.154;8.198;2022-12-20T08:39:29;5.30;99.90
20728;DHT22;10525;50.154;8.198;2022-12-20T08:41:56;5.20;99.90
20728;DHT22;10525;50.154;8.198;2022-12-20T08:44:23;5.20;99.90
20728;DHT22;10525;50.154;8.198;2022-12-20T08:46:50;5.20;99.90
20728;DHT22;10525;50.154;8.198;2022-12-20T08:49:18;5.00;99.90
20728;DHT22;10525;50.154;8.198;2022-12-20T08:51:45;4.90;99.90
20728;DHT22;10525;50.154;8.198;2022-12-20T08:54:12;4.70;99.90
20728;DHT22;10525;50.154;8.198;2022-12-20T08:56:40;4.60;99.90
20728;DHT22;10525;50.154;8.198;2022-12-20T08:59:07;4.60;99.90
20728;DHT22;10525;50.154;8.198;2022-12-20T09:01:33;4.60;99.90
20728;DHT22;10525;50.154;8.198;2022-12-20T09:04:00;4.60;99.90
20728;DHT22;10525;50.154;8.198;2022-12-20T09:06:27;4.60;99.90
20728;DHT22;10525;50.154;8.198;2022-12-20T09:08:53;4.60;99.90
20728;DHT22;10525;50.154;8.198;2022-12-20T09:11:22;4.70;99.90
20728;DHT22;10525;50.154;8.198;2022-12-20T09:13:53;4.80;99.90
20728;DHT22;10525;50.154;8.198;2022-12-20T09:16:21;4.80;99.90
20728;DHT22;10525;50.154;8.198;2022-12-20T09:18:49;4.80;99.90
20728;DHT22;10525;50.154;8.198;2022-12-20T09:21:16;4.90;99.90
20728;DHT22;10525;50.154;8.198;2022-12-20T09:23:43;4.90;99.90
20728;DHT22;10525;50.154;8.198;2022-12-20T09:26:12;5.00;99.90
20728;DHT22;10525;50.154;8.198;2022-12-20T09:28:39;5.10;99.90
20728;DHT22;10525;50.154;8.198;2022-12-20T09:31:09;5.10;99.90
20728;DHT22;10525;50.154;8.198;2022-12-20T09:33:36;5.10;99.90
20728;DHT22;10525;50.154;8.198;2022-12-20T09:36:04;5.00;99.90
20728;DHT22;10525;50.154;8.198;2022-12-20T09:38:31;5.00;99.90
20728;DHT22;10525;50.154;8.198;2022-12-20T09:41:01;5.10;99.90
20728;DHT22;10525;50.154;8.198;2022-12-20T09:43:29;5.20;99.90
20728;DHT22;10525;50.154;8.198;2022-12-20T09:45:58;5.20;99.90
20728;DHT22;10525;50.154;8.198;2022-12-20T09:48:30;5.30;99.90
20728;DHT22;10525;50.154;8.198;2022-12-20T09:51:04;5.30;99.90
20728;DHT22;10525;50.154;8.198;2022-12-20T09:53:41;5.40;99.90
20728;DHT22;10525;50.154;8.198;2022-12-20T09:56:15;5.40;99.90
20728;DHT22;10525;50.154;8.198;2022-12-20T09:58:58;5.40;99.90
20728;DHT22;10525;50.154;8.198;2022-12-20T10:01:27;5.40;99.90
20728;DHT22;10525;50.154;8.198;2022-12-20T10:03:57;5.40;99.90
20728;DHT22;10525;50.154;8.198;2022-12-20T10:06:31;5.40;99.90
20728;DHT22;10525;50.154;8.198;2022-12-20T10:09:02;5.40;99.90
20728;DHT22;10525;50.154;8.198;2022-12-20T10:11:41;5.40;99.90
20728;DHT22;10525;50.154;8.198;2022-12-20T10:14:24;5.50;99.90
20728;DHT22;10525;50.154;8.198;2022-12-20T10:16:59;5.50;99.90
20728;DHT22;10525;50.154;8.198;2022-12-20T10:19:48;5.60;99.90
20728;DHT22;10525;50.154;8.198;2022-12-20T10:22:21;5.70;99.90
20728;DHT22;10525;50.154;8.198;2022-12-20T10:24:54;5.80;99.90
20728;DHT22;10525;50.154;8.198;2022-12-20T10:27:21;5.90;99.90
20728;DHT22;10525;50.154;8.198;2022-12-20T10:29:48;6.00;99.90
20728;DHT22;10525;50.154;8.198;2022-12-20T10:32:17;6.00;99.90
20728;DHT22;10525;50.154;8.198;2022-12-20T10:34:51;6.10;99.90
20728;DHT22;10525;50.154;8.198;2022-12-20T10:37:20;6.20;99.90
20728;DHT22;10525;50.154;8.198;2022-12-20T10:39:48;6.30;99.90
20728;DHT22;10525;50.154;8.198;2022-12-20T10:42:24;6.30;99.90
20728;DHT22;10525;50.154;8.198;2022-12-20T10:44:52;6.40;99.90
20728;DHT22;10525;50.154;8.198;2022-12-20T10:47:30;6.40;99.90
20728;DHT22;10525;50.154;8.198;2022-12-20T10:50:12;6.50;99.90
20728;DHT22;10525;50.154;8.198;2022-12-20T10:52:40;6.50;99.90
20728;DHT22;10525;50.154;8.198;2022-12-20T10:55:31;6.50;99.90
20728;DHT22;10525;50.154;8.198;2022-12-20T10:58:02;6.50;99.90
20728;DHT22;10525;50.154;8.198;2022-12-20T11:00:29;6.40;99.90
20728;DHT22;10525;50.154;8.198;2022-12-20T11:03:08;6.40;99.90
20728;DHT22;10525;50.154;8.198;2022-12-20T11:05:38;6.40;99.90
20728;DHT22;10525;50.154;8.198;2022-12-20T11:08:14;6.50;99.90
20728;DHT22;10525;50.154;8.198;2022-12-20T11:10:42;6.40;99.90
20728;DHT22;10525;50.154;8.198;2022-12-20T11:13:20;6.50;99.90
20728;DHT22;10525;50.154;8.198;2022-12-20T11:15:49;6.60;99.90
20728;DHT22;10525;50.154;8.198;2022-12-20T11:18:21;6.50;99.90
20728;DHT22;10525;50.154;8.198;2022-12-20T11:20:53;6.50;99.90
20728;DHT22;10525;50.154;8.198;2022-12-20T11:23:26;6.70;99.90
20728;DHT22;10525;50.154;8.198;2022-12-20T11:26:11;6.90;99.90
20728;DHT22;10525;50.154;8.198;2022-12-20T11:28:59;6.90;99.90
20728;DHT22;10525;50.154;8.198;2022-12-20T11:31:38;7.00;99.90
20728;DHT22;10525;50.154;8.198;2022-12-20T11:34:21;7.10;99.90
20728;DHT22;10525;50.154;8.198;2022-12-20T11:37:08;7.10;99.90
20728;DHT22;10525;50.154;8.198;2022-12-20T11:39:53;7.10;99.90
20728;DHT22;10525;50.154;8.198;2022-12-20T11:42:28;7.10;99.90
20728;DHT22;10525;50.154;8.198;2022-12-20T11:45:03;7.20;99.90
20728;DHT22;10525;50.154;8.198;2022-12-20T11:50:39;7.40;99.90
20728;DHT22;10525;50.154;8.198;2022-12-20T11:53:14;7.50;99.90
20728;DHT22;10525;50.154;8.198;2022-12-20T11:55:44;7.60;99.90
20728;DHT22;10525;50.154;8.198;2022-12-20T11:58:17;7.60;99.90
20728;DHT22;10525;50.154;8.198;2022-12-20T12:00:50;7.70;99.90
20728;DHT22;10525;50.154;8.198;2022-12-20T12:03:25;7.70;99.90
20728;DHT22;10525;50.154;8.198;2022-12-20T12:05:54;7.70;99.90
20728;DHT22;10525;50.154;8.198;2022-12-20T12:08:26;7.80;99.90
20728;DHT22;10525;50.154;8.198;2022-12-20T12:10:58;7.80;99.90
20728;DHT22;10525;50.154;8.198;2022-12-20T12:13:27;7.80;99.90
20728;DHT22;10525;50.154;8.198;2022-12-20T12:16:02;8.10;99.90
20728;DHT22;10525;50.154;8.198;2022-12-20T12:18:30;8.20;99.90
20728;DHT22;10525;50.154;8.198;2022-12-20T12:21:03;8.20;99.90
20728;DHT22;10525;50.154;8.198;2022-12-20T12:23:38;8.20;99.90
20728;DHT22;10525;50.154;8.198;2022-12-20T12:26:12;8.30;99.90
20728;DHT22;10525;50.154;8.198;2022-12-20T12:28:40;8.40;99.90
20728;DHT22;10525;50.154;8.198;2022-12-20T12:31:10;8.50;99.90
20728;DHT22;10525;50.154;8.198;2022-12-20T12:33:42;8.40;99.90
20728;DHT22;10525;50.154;8.198;2022-12-20T12:36:31;8.40;99.90
20728;DHT22;10525;50.154;8.198;2022-12-20T12:39:22;8.50;99.90
20728;DHT22;10525;50.154;8.198;2022-12-20T12:42:08;8.40;99.90
20728;DHT22;10525;50.154;8.198;2022-12-20T12:44:47;8.40;99.90
20728;DHT22;10525;50.154;8.198;2022-12-20T12:47:19;8.40;99.90
20728;DHT22;10525;50.154;8.198;2022-12-20T12:49:49;8.30;99.90
20728;DHT22;10525;50.154;8.198;2022-12-20T12:52:36;8.30;99.90
20728;DHT22;10525;50.154;8.198;2022-12-20T12:55:38;8.30;99.90
20728;DHT22;10525;50.154;8.198;2022-12-20T12:58:32;8.20;99.90
20728;DHT22;10525;50.154;8.198;2022-12-20T13:01:01;8.30;99.90
20728;DHT22;10525;50.154;8.198;2022-12-20T13:03:43;8.30;99.90
20728;DHT22;10525;50.154;8.198;2022-12-20T13:06:42;8.30;99.90
20728;DHT22;10525;50.154;8.198;2022-12-20T13:09:17;8.40;99.90
20728;DHT22;10525;50.154;8.198;2022-12-20T13:11:46;8.40;99.90
20728;DHT22;10525;50.154;8.198;2022-12-20T13:14:47;8.30;99.90
20728;DHT22;10525;50.154;8.198;2022-12-20T13:17:39;8.30;99.90
20728;DHT22;10525;50.154;8.198;2022-12-20T13:20:17;8.20;99.90
20728;DHT22;10525;50.154;8.198;2022-12-20T13:23:11;8.40;99.90
20728;DHT22;10525;50.154;8.198;2022-12-20T13:25:41;8.40;99.90
20728;DHT22;10525;50.154;8.198;2022-12-20T13:31:31;8.60;99.90
20728;DHT22;10525;50.154;8.198;2022-12-20T13:34:01;8.80;99.90
20728;DHT22;10525;50.154;8.198;2022-12-20T13:36:33;8.90;99.90
20728;DHT22;10525;50.154;8.198;2022-12-20T13:41:45;9.00;99.90
20728;DHT22;10525;50.154;8.198;2022-12-20T13:44:35;9.00;99.90
20728;DHT22;10525;50.154;8.198;2022-12-20T13:47:22;9.00;99.90
20728;DHT22;10525;50.154;8.198;2022-12-20T13:49:51;9.00;99.90
20728;DHT22;10525;50.154;8.198;2022-12-20T13:52:23;9.00;99.90
20728;DHT22;10525;50.154;8.198;2022-12-20T13:54:53;9.10;99.90
20728;DHT22;10525;50.154;8.198;2022-12-20T13:57:28;9.10;99.90
20728;DHT22;10525;50.154;8.198;2022-12-20T13:59:58;9.10;99.90
20728;DHT22;10525;50.154;8.198;2022-12-20T14:02:32;9.20;99.90
20728;DHT22;10525;50.154;8.198;2022-12-20T14:05:02;9.20;99.90
20728;DHT22;10525;50.154;8.198;2022-12-20T14:07:31;9.20;99.90
20728;DHT22;10525;50.154;8.198;2022-12-20T14:09:59;9.20;99.90
20728;DHT22;10525;50.154;8.198;2022-12-20T14:12:27;9.30;99.90
20728;DHT22;10525;50.154;8.198;2022-12-20T14:14:55;9.20;99.90
20728;DHT22;10525;50.154;8.198;2022-12-20T14:17:25;9.20;99.90
20728;DHT22;10525;50.154;8.198;2022-12-20T14:20:11;9.20;99.90
20728;DHT22;10525;50.154;8.198;2022-12-20T14:22:40;9.10;99.90
20728;DHT22;10525;50.154;8.198;2022-12-20T14:25:08;9.20;99.90
20728;DHT22;10525;50.154;8.198;2022-12-20T14:27:37;9.10;99.90
20728;DHT22;10525;50.154;8.198;2022-12-20T14:30:05;9.10;99.90
20728;DHT22;10525;50.154;8.198;2022-12-20T14:32:31;9.10;99.90
20728;DHT22;10525;50.154;8.198;2022-12-20T14:34:58;9.00;99.90
20728;DHT22;10525;50.154;8.198;2022-12-20T14:37:30;8.90;99.90
20728;DHT22;10525;50.154;8.198;2022-12-20T14:40:01;8.90;99.90
20728;DHT22;10525;50.154;8.198;2022-12-20T14:42:32;8.80;99.90
20728;DHT22;10525;50.154;8.198;2022-12-20T14:45:14;8.70;99.90
20728;DHT22;10525;50.154;8.198;2022-12-20T14:47:48;8.70;99.90
20728;DHT22;10525;50.154;8.198;2022-12-20T14:50:18;8.70;99.90
20728;DHT22;10525;50.154;8.198;2022-12-20T14:52:47;8.60;99.90
20728;DHT22;10525;50.154;8.198;2022-12-20T14:55:15;8.60;99.90
20728;DHT22;10525;50.154;8.198;2022-12-20T14:57:45;8.40;99.90
20728;DHT22;10525;50.154;8.198;2022-12-20T15:00:19;8.40;99.90
20728;DHT22;10525;50.154;8.198;2022-12-20T15:02:50;8.40;99.90
20728;DHT22;10525;50.154;8.198;2022-12-20T15:05:51;8.30;99.90
20728;DHT22;10525;50.154;8.198;2022-12-20T15:08:21;8.20;99.90
20728;DHT22;10525;50.154;8.198;2022-12-20T15:10:56;8.20;99.90
20728;DHT22;10525;50.154;8.198;2022-12-20T15:13:26;8.10;99.90
20728;DHT22;10525;50.154;8.198;2022-12-20T15:15:54;8.00;99.90
20728;DHT22;10525;50.154;8.198;2022-12-20T15:18:21;8.10;99.90
20728;DHT22;10525;50.154;8.198;2022-12-20T15:20:52;8.10;99.90
20728;DHT22;10525;50.154;8.198;2022-12-20T15:23:23;8.10;99.90
20728;DHT22;10525;50.154;8.198;2022-12-20T15:25:49;8.10;99.90
20728;DHT22;10525;50.154;8.198;2022-12-20T15:28:18;8.10;99.90
20728;DHT22;10525;50.154;8.198;2022-12-20T15:30:46;8.00;99.90
20728;DHT22;10525;50.154;8.198;2022-12-20T15:33:15;8.10;99.90
20728;DHT22;10525;50.154;8.198;2022-12-20T15:35:42;8.10;99.90
20728;DHT22;10525;50.154;8.198;2022-12-20T15:38:13;8.10;99.90
20728;DHT22;10525;50.154;8.198;2022-12-20T15:40:43;8.00;99.90
20728;DHT22;10525;50.154;8.198;2022-12-20T15:43:12;8.00;99.90
20728;DHT22;10525;50.154;8.198;2022-12-20T15:45:40;8.00;99.90
20728;DHT22;10525;50.154;8.198;2022-12-20T15:48:13;8.00;99.90
20728;DHT22;10525;50.154;8.198;2022-12-20T15:50:41;8.00;99.90
20728;DHT22;10525;50.154;8.198;2022-12-20T15:53:11;7.90;99.90
20728;DHT22;10525;50.154;8.198;2022-12-20T15:55:38;7.90;99.90
20728;DHT22;10525;50.154;8.198;2022-12-20T15:58:07;7.80;99.90
20728;DHT22;10525;50.154;8.198;2022-12-20T16:00:35;7.70;99.90
20728;DHT22;10525;50.154;8.198;2022-12-20T16:03:02;7.50;99.90
20728;DHT22;10525;50.154;8.198;2022-12-20T16:05:28;7.50;99.90
20728;DHT22;10525;50.154;8.198;2022-12-20T16:07:55;7.50;99.90
20728;DHT22;10525;50.154;8.198;2022-12-20T16:10:22;7.40;99.90
20728;DHT22;10525;50.154;8.198;2022-12-20T16:12:48;7.30;99.90
20728;DHT22;10525;50.154;8.198;2022-12-20T16:15:20;7.30;99.90
20728;DHT22;10525;50.154;8.198;2022-12-20T16:17:47;7.40;99.90
20728;DHT22;10525;50.154;8.198;2022-12-20T16:20:14;7.30;99.90